Time;durP1;ratioP1;P1;durP2;ratioP2;P2;SDS_P1;SDS_P2;PMS_P1;PMS_P2;Temp;Humidity;BMP_temperature;BMP_pressure;BME280_temperature;BME280_humidity;BME280_pressure;Samples;Min_cycle;Max_cycle;Signal;HPM_P1;HPM_P2
2022/08/08 00:00:58;;;;;;;8.23;5.35;;;13.00;87.70;;;;;;5023557;28;20025;-69
2022/08/08 00:03:44;;;;;;;8.25;5.75;;;13.00;88.40;;;;;;5022753;28;20469;-69
2022/08/08 00:06:35;;;;;;;9.70;5.78;;;13.00;88.40;;;;;;5023465;28;20045;-69
2022/08/08 00:09:13;;;;;;;9.70;5.93;;;12.90;88.60;;;;;;5018311;28;20025;-69
2022/08/08 00:11:43;;;;;;;8.48;5.28;;;12.90;88.90;;;;;;5021357;28;20318;-69
2022/08/08 00:14:30;;;;;;;8.25;5.57;;;12.90;88.90;;;;;;5027496;28;20209;-69
2022/08/08 00:17:07;;;;;;;9.65;5.45;;;12.80;89.10;;;;;;5026056;28;20056;-69
2022/08/08 00:19:53;;;;;;;7.72;5.20;;;12.80;88.50;;;;;;5028934;28;20067;-69
2022/08/08 00:22:27;;;;;;;11.15;5.88;;;12.80;88.90;;;;;;5022688;28;20028;-69
2022/08/08 00:25:03;;;;;;;8.52;5.57;;;12.70;88.90;;;;;;5024014;28;20065;-69
2022/08/08 00:27:29;;;;;;;8.98;5.50;;;12.60;88.70;;;;;;5014604;28;20076;-69
2022/08/08 00:29:59;;;;;;;13.10;6.05;;;12.60;88.70;;;;;;5028563;28;20053;-69
2022/08/08 00:32:47;;;;;;;8.93;5.68;;;12.60;88.60;;;;;;5025700;28;20432;-69
2022/08/08 00:35:43;;;;;;;7.88;5.78;;;12.60;88.90;;;;;;5014029;28;20106;-69
2022/08/08 00:38:45;;;;;;;9.60;5.40;;;12.60;89.70;;;;;;5027963;28;20452;-69
2022/08/08 00:41:51;;;;;;;9.15;5.07;;;12.60;89.60;;;;;;5012825;28;20072;-69
2022/08/08 00:44:26;;;;;;;8.50;5.18;;;12.60;89.60;;;;;;5025312;28;20212;-69
2022/08/08 00:47:15;;;;;;;10.55;6.15;;;12.50;89.70;;;;;;5023149;28;20377;-69
2022/08/08 00:49:59;;;;;;;9.48;5.82;;;12.50;89.80;;;;;;5028973;28;20039;-69
2022/08/08 00:52:47;;;;;;;12.38;5.93;;;12.50;90.00;;;;;;5026985;28;20021;-69
2022/08/08 00:55:32;;;;;;;8.85;5.63;;;12.40;89.80;;;;;;5017924;28;20569;-69
2022/08/08 00:58:34;;;;;;;8.32;6.07;;;12.50;90.00;;;;;;5026917;28;20460;-69
2022/08/08 01:01:13;;;;;;;10.45;6.15;;;12.40;90.00;;;;;;5026152;28;20033;-69
2022/08/08 01:04:05;;;;;;;9.55;6.35;;;12.40;90.20;;;;;;5025544;28;20033;-69
2022/08/08 01:06:37;;;;;;;;;;;12.30;89.90;;;;;;5026984;28;20029;-69
2022/08/08 01:09:21;;;;;;;7.93;5.68;;;12.30;89.80;;;;;;5028805;28;19917;-69
2022/08/08 01:12:04;;;;;;;8.68;5.88;;;12.30;89.80;;;;;;5028084;28;20412;-69
2022/08/08 01:14:43;;;;;;;11.82;6.20;;;12.30;89.70;;;;;;5024151;28;20056;-69
2022/08/08 01:17:18;;;;;;;10.90;6.05;;;12.20;89.80;;;;;;5024800;28;20029;-69
2022/08/08 01:20:18;;;;;;;8.05;5.68;;;12.20;90.00;;;;;;5024946;28;20108;-69
2022/08/08 01:23:21;;;;;;;8.48;6.22;;;12.20;90.30;;;;;;5027081;28;20024;-69
2022/08/08 01:26:02;;;;;;;9.90;6.07;;;12.20;90.50;;;;;;5027612;28;20068;-69
2022/08/08 01:28:30;;;;;;;;;;;12.20;90.60;;;;;;5032244;28;20038;-69
2022/08/08 01:31:29;;;;;;;7.38;4.93;;;12.20;90.60;;;;;;5027596;28;19905;-69
2022/08/08 01:34:14;;;;;;;10.68;5.80;;;12.20;90.40;;;;;;5030863;28;20033;-69
2022/08/08 01:37:08;;;;;;;10.27;5.70;;;12.20;90.90;;;;;;5031745;28;20477;-69
2022/08/08 01:40:03;;;;;;;12.98;6.95;;;12.10;91.00;;;;;;5031736;28;20550;-69
2022/08/08 01:42:55;;;;;;;8.65;6.07;;;12.10;90.90;;;;;;5023500;28;20037;-69
2022/08/08 01:45:39;;;;;;;12.63;5.88;;;12.00;90.80;;;;;;5025798;28;20091;-69
2022/08/08 01:48:24;;;;;;;12.15;6.65;;;12.00;90.80;;;;;;5029119;28;20416;-69
2022/08/08 01:51:20;;;;;;;8.13;5.40;;;12.00;90.80;;;;;;5030362;28;20120;-69
2022/08/08 01:54:14;;;;;;;9.73;5.88;;;12.00;90.80;;;;;;5030813;28;20420;-69
2022/08/08 01:57:20;;;;;;;10.93;5.90;;;11.90;90.80;;;;;;5026538;28;20102;-69
2022/08/08 02:00:13;;;;;;;10.60;6.75;;;11.90;91.30;;;;;;5026904;28;20026;-69
2022/08/08 02:02:53;;;;;;;10.27;6.50;;;12.00;91.80;;;;;;5023712;28;20343;-69
2022/08/08 02:05:44;;;;;;;11.25;7.10;;;11.90;91.80;;;;;;5023519;28;20039;-69
2022/08/08 02:08:52;;;;;;;10.52;6.63;;;12.00;91.90;;;;;;5030540;28;20039;-69
2022/08/08 02:11:32;;;;;;;9.45;6.20;;;11.90;91.70;;;;;;5028014;28;20041;-69
2022/08/08 02:14:27;;;;;;;9.57;6.57;;;11.80;91.60;;;;;;5029927;28;20038;-69
2022/08/08 02:17:19;;;;;;;13.30;7.07;;;11.80;91.70;;;;;;5023174;28;20572;-69
2022/08/08 02:19:52;;;;;;;10.20;6.65;;;11.80;91.90;;;;;;5029793;28;20080;-69
2022/08/08 02:22:30;;;;;;;9.85;6.60;;;11.70;91.90;;;;;;5027621;28;20133;-69
2022/08/08 02:25:05;;;;;;;10.15;6.35;;;11.70;92.00;;;;;;5024044;28;20030;-69
2022/08/08 02:27:46;;;;;;;10.52;7.13;;;11.70;92.00;;;;;;5029306;28;20476;-69
2022/08/08 02:30:30;;;;;;;10.43;6.65;;;11.70;92.00;;;;;;5030198;28;20073;-69
2022/08/08 02:33:08;;;;;;;10.73;6.93;;;11.70;92.00;;;;;;5024419;28;20449;-69
2022/08/08 02:35:36;;;;;;;12.32;6.70;;;11.60;92.00;;;;;;5029134;28;20018;-69
2022/08/08 02:38:20;;;;;;;11.88;6.40;;;11.60;91.80;;;;;;5028831;28;20069;-69
2022/08/08 02:41:22;;;;;;;10.90;6.90;;;11.60;91.80;;;;;;5023437;28;20029;-69
2022/08/08 02:44:15;;;;;;;10.45;6.20;;;11.60;91.70;;;;;;5027597;28;20032;-69
2022/08/08 02:47:11;;;;;;;11.60;6.03;;;11.60;92.00;;;;;;5029300;28;20100;-69
2022/08/08 02:50:32;;;;;;;9.00;6.05;;;11.60;92.00;;;;;;5029297;28;20033;-69
2022/08/08 02:53:12;;;;;;;10.25;6.20;;;11.60;92.40;;;;;;5030552;28;20512;-69
2022/08/08 02:55:37;;;;;;;10.95;7.30;;;11.60;92.40;;;;;;5022742;28;20498;-69
2022/08/08 02:58:33;;;;;;;10.25;6.30;;;11.50;92.30;;;;;;5020193;28;20083;-69
2022/08/08 03:01:36;;;;;;;11.25;6.28;;;11.60;92.40;;;;;;5021550;28;20109;-69
2022/08/08 03:04:34;;;;;;;10.95;6.68;;;11.50;92.30;;;;;;5016065;28;20075;-69
2022/08/08 03:07:33;;;;;;;10.38;6.25;;;11.50;92.40;;;;;;5030034;28;20030;-69
2022/08/08 03:10:14;;;;;;;9.45;6.60;;;11.50;92.50;;;;;;5025994;28;20300;-69
2022/08/08 03:12:48;;;;;;;12.52;7.10;;;11.50;92.50;;;;;;5026672;28;20036;-69
2022/08/08 03:15:42;;;;;;;12.23;7.10;;;11.50;92.60;;;;;;5029094;28;20509;-69
2022/08/08 03:18:18;;;;;;;9.65;6.38;;;11.50;92.50;;;;;;5024898;28;20508;-69
2022/08/08 03:20:48;;;;;;;12.32;7.55;;;11.50;92.70;;;;;;5013688;28;20492;-69
2022/08/08 03:23:14;;;;;;;11.48;6.55;;;11.50;92.70;;;;;;5028986;28;20029;-69
2022/08/08 03:25:41;;;;;;;10.18;7.07;;;11.50;92.60;;;;;;5028256;28;20025;-69
2022/08/08 03:28:20;;;;;;;10.43;7.35;;;11.50;92.60;;;;;;5025335;28;20029;-69
2022/08/08 03:30:46;;;;;;;11.60;7.15;;;11.40;92.50;;;;;;5028888;28;20018;-69
2022/08/08 03:33:17;;;;;;;13.75;7.25;;;11.40;92.60;;;;;;5027131;28;20029;-69
2022/08/08 03:35:45;;;;;;;11.15;7.43;;;11.30;92.50;;;;;;5029518;28;20528;-69
2022/08/08 03:38:11;;;;;;;11.52;7.13;;;11.30;93.00;;;;;;5026924;28;20220;-69
2022/08/08 03:40:37;;;;;;;13.43;7.65;;;11.40;93.30;;;;;;5029216;28;20242;-69
2022/08/08 03:43:05;;;;;;;11.90;8.00;;;11.40;93.50;;;;;;5026300;28;20389;-69
2022/08/08 03:45:31;;;;;;;12.70;7.78;;;11.40;93.60;;;;;;5018181;28;20048;-69
2022/08/08 03:48:09;;;;;;;12.38;7.85;;;11.40;93.70;;;;;;5027336;28;20017;-69
2022/08/08 03:50:40;;;;;;;14.35;7.97;;;11.40;93.70;;;;;;5028686;28;20109;-69
2022/08/08 03:53:07;;;;;;;13.40;7.43;;;11.40;93.70;;;;;;5025348;28;20063;-69
2022/08/08 03:55:40;;;;;;;15.02;7.38;;;11.40;93.60;;;;;;5025115;28;20420;-69
2022/08/08 03:58:06;;;;;;;13.88;8.00;;;11.40;93.70;;;;;;5027862;28;20026;-69
2022/08/08 04:00:32;;;;;;;12.15;7.18;;;11.40;93.60;;;;;;5021922;28;20116;-69
2022/08/08 04:03:04;;;;;;;12.65;7.68;;;11.30;93.60;;;;;;5023875;28;20034;-69
2022/08/08 04:05:32;;;;;;;12.10;7.78;;;11.30;93.30;;;;;;5029543;28;20512;-69
2022/08/08 04:07:58;;;;;;;12.50;7.50;;;11.40;93.40;;;;;;5027775;28;20422;-69
2022/08/08 04:10:25;;;;;;;10.77;6.95;;;11.30;93.50;;;;;;5028765;28;20086;-69
2022/08/08 04:12:52;;;;;;;14.13;7.68;;;11.30;93.60;;;;;;5021510;28;20095;-69
2022/08/08 04:15:18;;;;;;;10.55;7.38;;;11.40;93.60;;;;;;5012095;28;20049;-69
2022/08/08 04:17:43;;;;;;;12.05;7.95;;;11.50;93.70;;;;;;5014416;28;20065;-69
2022/08/08 04:20:09;;;;;;;12.07;7.82;;;11.50;93.70;;;;;;5028978;28;20036;-70
2022/08/08 04:22:34;;;;;;;13.43;8.05;;;11.60;93.70;;;;;;5028889;28;20055;-70
2022/08/08 04:25:00;;;;;;;13.45;7.88;;;11.60;93.70;;;;;;5024762;28;20353;-70
2022/08/08 04:27:26;;;;;;;11.95;7.57;;;11.60;93.70;;;;;;5027384;28;20045;-69
2022/08/08 04:29:52;;;;;;;11.55;7.50;;;11.70;93.70;;;;;;5027486;28;20021;-68
2022/08/08 04:32:17;;;;;;;11.88;7.10;;;11.80;93.60;;;;;;5025022;28;20037;-68
2022/08/08 04:34:44;;;;;;;14.43;7.70;;;11.80;93.40;;;;;;5028936;28;20100;-68
2022/08/08 04:37:10;;;;;;;12.73;7.45;;;11.90;93.30;;;;;;5027992;28;20412;-68
2022/08/08 04:39:35;;;;;;;13.40;8.25;;;12.00;93.20;;;;;;5012952;28;20044;-68
2022/08/08 04:42:01;;;;;;;13.77;7.72;;;12.00;92.90;;;;;;5027374;28;20033;-68
2022/08/08 04:44:27;;;;;;;12.40;7.30;;;12.10;92.70;;;;;;5026067;28;20457;-68
2022/08/08 04:46:52;;;;;;;10.27;7.07;;;12.10;92.70;;;;;;5023897;28;20449;-68
2022/08/08 04:49:18;;;;;;;12.60;8.25;;;12.20;92.60;;;;;;5017922;28;20406;-68
2022/08/08 04:51:43;;;;;;;11.45;8.18;;;12.30;92.60;;;;;;5027770;28;20378;-68
2022/08/08 04:54:09;;;;;;;13.38;7.78;;;12.20;92.40;;;;;;5026551;28;20037;-68
2022/08/08 04:56:35;;;;;;;10.77;7.03;;;12.30;92.20;;;;;;5022923;28;20030;-68
2022/08/08 04:59:00;;;;;;;12.05;7.38;;;12.30;92.10;;;;;;5007492;28;20105;-68
2022/08/08 05:01:26;;;;;;;15.60;7.82;;;12.20;92.20;;;;;;5024498;28;20083;-68
2022/08/08 05:03:51;;;;;;;13.48;8.43;;;12.20;91.80;;;;;;5028445;28;20052;-68
2022/08/08 05:06:17;;;;;;;12.13;7.43;;;12.20;91.70;;;;;;5034204;28;20025;-68
2022/08/08 05:08:43;;;;;;;12.68;7.55;;;12.30;91.60;;;;;;5033674;28;20044;-68
2022/08/08 05:11:12;;;;;;;12.45;8.00;;;12.30;91.30;;;;;;5034868;28;20827;-68
2022/08/08 05:13:39;;;;;;;12.80;7.43;;;12.50;91.60;;;;;;5031425;28;20021;-68
2022/08/08 05:16:04;;;;;;;10.43;7.32;;;12.60;91.80;;;;;;5030517;28;20044;-68
2022/08/08 05:18:32;;;;;;;12.05;7.38;;;12.60;91.60;;;;;;5033907;28;20448;-68
2022/08/08 05:21:01;;;;;;;12.00;6.93;;;12.70;91.70;;;;;;5026939;28;20109;-68
2022/08/08 05:23:27;;;;;;;12.10;6.88;;;12.80;91.80;;;;;;5033452;28;20034;-69
2022/08/08 05:25:52;;;;;;;11.55;8.07;;;13.00;91.80;;;;;;5034261;28;20037;-68
2022/08/08 05:28:18;;;;;;;12.68;8.18;;;13.20;91.90;;;;;;5033770;28;20025;-68
2022/08/08 05:30:43;;;;;;;11.60;7.40;;;13.40;91.70;;;;;;5028903;28;20029;-68
2022/08/08 05:33:09;;;;;;;11.45;7.10;;;13.60;91.50;;;;;;5033243;28;20036;-68
2022/08/08 05:35:35;;;;;;;11.05;7.20;;;13.80;91.30;;;;;;5033862;28;20053;-69
2022/08/08 05:38:04;;;;;;;12.32;6.05;;;14.00;90.90;;;;;;5033623;28;20121;-69
2022/08/08 05:40:32;;;;;;;12.95;6.40;;;14.30;90.50;;;;;;5034898;28;20095;-69
2022/08/08 05:43:09;;;;;;;12.00;6.10;;;14.50;89.90;;;;;;5029184;28;20440;-69
2022/08/08 05:45:36;;;;;;;9.68;5.65;;;14.80;89.50;;;;;;5030102;28;20041;-69
2022/08/08 05:48:03;;;;;;;9.00;5.22;;;15.00;89.10;;;;;;5027295;28;20029;-69
2022/08/08 05:50:30;;;;;;;10.77;5.05;;;15.10;89.10;;;;;;5033713;28;20072;-69
2022/08/08 05:52:56;;;;;;;8.90;4.80;;;15.30;88.20;;;;;;5034073;28;20100;-69
2022/08/08 05:55:22;;;;;;;8.60;3.92;;;15.40;87.10;;;;;;5027077;28;20121;-69
2022/08/08 05:57:51;;;;;;;5.60;3.50;;;15.40;87.10;;;;;;5026341;28;20567;-69
2022/08/08 06:00:17;;;;;;;6.10;3.67;;;15.40;86.90;;;;;;5021875;28;20121;-69
2022/08/08 06:05:33;;;;;;;6.95;4.30;;;15.40;86.70;;;;;;5028866;28;20031;-69
2022/08/08 06:08:01;;;;;;;8.75;4.85;;;15.40;86.90;;;;;;5034004;28;20413;-70
2022/08/08 06:10:31;;;;;;;8.10;4.30;;;15.30;87.10;;;;;;5035415;28;20386;-70
2022/08/08 06:12:56;;;;;;;9.32;4.68;;;15.40;86.30;;;;;;5029279;28;20029;-70
2022/08/08 06:15:22;;;;;;;6.95;4.30;;;15.50;86.70;;;;;;5031626;28;20058;-70
2022/08/08 06:17:50;;;;;;;7.75;4.60;;;15.60;86.70;;;;;;5023396;28;20084;-70
2022/08/08 06:20:16;;;;;;;9.70;3.92;;;15.80;85.20;;;;;;5030292;28;20091;-70
2022/08/08 06:22:41;;;;;;;5.80;3.75;;;16.00;85.20;;;;;;5030222;28;20025;-70
2022/08/08 06:25:07;;;;;;;5.75;3.25;;;16.00;83.80;;;;;;5024456;28;20124;-70
2022/08/08 06:27:45;;;;;;;6.88;3.45;;;16.10;83.80;;;;;;5027794;28;20108;-70
2022/08/08 06:30:12;;;;;;;10.20;2.83;;;16.30;84.00;;;;;;5029933;28;20029;-70
2022/08/08 06:32:46;;;;;;;6.43;3.40;;;16.30;83.30;;;;;;5028213;28;20034;-70
2022/08/08 06:35:14;;;;;;;5.15;2.92;;;16.50;83.20;;;;;;5029893;28;20040;-70
2022/08/08 06:37:46;;;;;;;5.18;2.90;;;16.50;82.80;;;;;;5029732;28;20133;-70
2022/08/08 06:40:14;;;;;;;5.57;3.17;;;16.50;82.50;;;;;;5023758;28;20485;-70
2022/08/08 06:43:10;;;;;;;8.50;3.50;;;16.50;82.40;;;;;;5025409;28;20432;-70
2022/08/08 06:45:37;;;;;;;5.70;2.78;;;16.50;80.70;;;;;;5030599;28;20041;-70
2022/08/08 06:48:04;;;;;;;5.88;3.13;;;16.60;80.90;;;;;;5025179;28;20032;-70
2022/08/08 06:50:31;;;;;;;7.25;3.15;;;16.80;80.30;;;;;;5028673;28;20037;-70
2022/08/08 06:53:01;;;;;;;8.80;3.30;;;16.90;80.40;;;;;;5028723;28;20032;-70
2022/08/08 06:55:28;;;;;;;6.43;2.95;;;17.20;80.40;;;;;;5027717;28;20029;-70
2022/08/08 06:57:54;;;;;;;6.45;2.70;;;17.40;79.20;;;;;;5030134;28;20351;-70
2022/08/08 07:00:19;;;;;;;4.05;2.30;;;17.60;79.50;;;;;;5029213;28;20145;-70
2022/08/08 07:02:56;;;;;;;6.00;2.97;;;17.90;78.80;;;;;;5026820;28;20025;-70
2022/08/08 07:05:24;;;;;;;6.28;2.58;;;18.00;77.90;;;;;;5030713;28;20029;-70
2022/08/08 07:08:01;;;;;;;6.25;2.70;;;18.00;76.60;;;;;;5030719;28;20364;-70
2022/08/08 07:10:32;;;;;;;4.50;2.47;;;17.90;76.00;;;;;;5024324;28;20048;-70
2022/08/08 07:13:04;;;;;;;5.45;2.42;;;17.60;76.90;;;;;;5016829;28;20092;-70
2022/08/08 07:15:37;;;;;;;6.72;2.45;;;17.60;78.00;;;;;;5021323;28;20436;-70
2022/08/08 07:18:06;;;;;;;7.28;3.08;;;17.60;78.70;;;;;;5023812;28;20509;-70
2022/08/08 07:20:38;;;;;;;4.65;2.40;;;17.70;79.00;;;;;;5018994;28;20120;-70
2022/08/08 07:23:19;;;;;;;4.53;2.63;;;17.70;79.10;;;;;;5025714;28;20163;-70
2022/08/08 07:25:49;;;;;;;10.60;3.33;;;17.90;78.70;;;;;;5034539;28;20021;-70
2022/08/08 07:28:15;;;;;;;5.95;3.28;;;18.00;78.60;;;;;;5028829;28;20476;-70
2022/08/08 07:30:42;;;;;;;10.18;2.88;;;18.40;77.30;;;;;;5034133;28;20037;-70
2022/08/08 07:33:10;;;;;;;6.43;2.83;;;18.80;77.00;;;;;;5026740;28;20029;-70
2022/08/08 07:35:37;;;;;;;4.70;2.72;;;19.20;76.80;;;;;;5027777;28;20371;-70
2022/08/08 07:38:03;;;;;;;6.82;2.53;;;19.30;73.10;;;;;;5019926;28;20112;-70
2022/08/08 07:40:28;;;;;;;6.85;2.53;;;19.40;72.60;;;;;;5026581;28;20461;-70
2022/08/08 07:42:54;;;;;;;6.47;2.60;;;19.40;72.40;;;;;;5024442;28;20037;-70
2022/08/08 07:45:21;;;;;;;4.22;2.20;;;19.60;71.50;;;;;;5023531;28;20033;-70
2022/08/08 07:47:46;;;;;;;6.53;2.78;;;19.60;70.00;;;;;;5023447;28;20502;-70
2022/08/08 07:50:12;;;;;;;4.55;2.35;;;19.60;68.70;;;;;;5021236;28;20088;-69
2022/08/08 07:52:46;;;;;;;5.72;2.30;;;19.70;71.70;;;;;;5017413;28;20362;-70
2022/08/08 07:55:29;;;;;;;5.10;2.08;;;20.00;69.80;;;;;;5027276;28;20017;-70
2022/08/08 07:58:22;;;;;;;4.20;2.00;;;20.20;68.40;;;;;;5015270;28;20150;-70
2022/08/08 08:00:56;;;;;;;3.83;1.95;;;20.20;68.70;;;;;;5020242;28;20469;-70
2022/08/08 08:03:31;;;;;;;3.85;2.20;;;20.30;67.90;;;;;;5011356;28;20477;-70
2022/08/08 08:05:58;;;;;;;6.13;2.00;;;20.20;67.30;;;;;;5019920;28;20259;-70
2022/08/08 08:08:41;;;;;;;8.63;2.55;;;20.20;67.70;;;;;;5025247;28;20037;-70
2022/08/08 08:11:16;;;;;;;5.38;2.17;;;20.30;66.40;;;;;;5029280;28;20072;-70
2022/08/08 08:14:01;;;;;;;5.85;2.40;;;20.10;65.30;;;;;;5021826;28;20018;-70
2022/08/08 08:16:29;;;;;;;5.32;2.33;;;20.00;64.70;;;;;;5026524;28;20079;-70
2022/08/08 08:19:04;;;;;;;3.83;1.75;;;20.30;66.80;;;;;;5016027;28;20029;-70
2022/08/08 08:21:43;;;;;;;4.78;2.08;;;20.30;67.40;;;;;;5024597;28;20137;-70
2022/08/08 08:24:10;;;;;;;3.70;1.77;;;20.50;67.10;;;;;;5029634;28;20033;-70
2022/08/08 08:26:35;;;;;;;6.10;1.90;;;20.30;63.50;;;;;;5029848;28;20041;-70
2022/08/08 08:29:01;;;;;;;6.18;1.83;;;20.10;62.30;;;;;;5022097;28;20477;-70
2022/08/08 08:31:27;;;;;;;3.50;1.63;;;20.50;64.50;;;;;;5017938;28;20548;-70
2022/08/08 08:33:52;;;;;;;5.13;1.85;;;20.50;64.50;;;;;;5021414;28;20029;-70
2022/08/08 08:36:18;;;;;;;4.35;2.03;;;20.60;63.90;;;;;;5024806;28;20035;-70
2022/08/08 08:38:44;;;;;;;3.88;2.10;;;20.80;62.80;;;;;;5026997;28;20049;-70
2022/08/08 08:41:11;;;;;;;6.70;2.25;;;20.90;64.40;;;;;;5028414;28;20044;-70
2022/08/08 08:43:40;;;;;;;3.80;1.98;;;21.00;63.60;;;;;;5022837;28;20048;-70
2022/08/08 08:46:08;;;;;;;5.75;2.15;;;21.10;65.50;;;;;;5014550;28;20484;-70
2022/08/08 08:48:34;;;;;;;6.07;2.50;;;21.00;63.20;;;;;;5028050;28;20036;-71
2022/08/08 08:51:01;;;;;;;3.28;1.80;;;21.00;63.00;;;;;;5021626;28;20417;-70
2022/08/08 08:53:27;;;;;;;5.05;2.10;;;21.40;63.10;;;;;;5019207;28;20466;-71
2022/08/08 08:55:54;;;;;;;4.05;2.28;;;21.70;62.60;;;;;;5022862;28;20043;-70
2022/08/08 08:58:34;;;;;;;6.07;2.70;;;21.70;61.60;;;;;;5018397;28;20108;-70
2022/08/08 09:01:01;;;;;;;7.15;2.63;;;22.00;61.30;;;;;;5022922;28;20033;-70
2022/08/08 09:03:28;;;;;;;4.07;2.33;;;22.00;62.10;;;;;;5021623;28;20048;-70
2022/08/08 09:05:55;;;;;;;5.90;2.45;;;22.20;60.90;;;;;;5019691;28;20044;-70
2022/08/08 09:08:23;;;;;;;4.57;2.42;;;22.50;62.20;;;;;;5021672;28;20038;-70
2022/08/08 09:10:49;;;;;;;5.90;2.40;;;22.50;59.20;;;;;;5026322;28;20038;-70
2022/08/08 09:13:16;;;;;;;6.65;2.30;;;22.60;59.90;;;;;;5015009;28;20466;-70
2022/08/08 09:15:42;;;;;;;6.13;2.45;;;22.60;59.20;;;;;;5018526;28;20583;-71
2022/08/08 09:18:08;;;;;;;4.05;2.30;;;22.80;58.50;;;;;;5025684;28;20075;-70
2022/08/08 09:20:36;;;;;;;5.82;2.28;;;22.90;58.50;;;;;;5018654;28;20025;-70
2022/08/08 09:23:02;;;;;;;5.13;2.22;;;22.90;57.70;;;;;;5021990;28;20464;-70
2022/08/08 09:25:27;;;;;;;5.60;2.30;;;22.70;55.70;;;;;;5023694;28;20037;-70
2022/08/08 09:27:53;;;;;;;6.55;2.55;;;22.70;56.10;;;;;;5028048;28;20112;-70
2022/08/08 09:30:20;;;;;;;4.75;2.40;;;22.80;56.40;;;;;;5026082;28;20034;-70
2022/08/08 09:32:52;;;;;;;3.60;2.10;;;23.10;55.50;;;;;;5019797;28;20022;-69
2022/08/08 09:35:21;;;;;;;6.13;2.42;;;23.40;56.00;;;;;;5016866;28;20025;-69
2022/08/08 09:37:52;;;;;;;4.85;2.05;;;23.40;55.30;;;;;;5025400;28;20037;-70
2022/08/08 09:40:21;;;;;;;;;;;23.60;54.30;;;;;;5030298;28;20396;-69
2022/08/08 09:43:12;;;;;;;5.20;2.13;;;23.90;54.20;;;;;;5021224;28;19967;-70
2022/08/08 09:45:54;;;;;;;7.55;2.05;;;23.80;54.00;;;;;;5015574;28;20048;-70
2022/08/08 09:48:19;;;;;;;4.50;1.92;;;23.80;54.10;;;;;;5022360;28;20025;-70
2022/08/08 09:50:48;;;;;;;6.07;2.40;;;23.80;53.70;;;;;;5020379;28;20091;-70
2022/08/08 09:53:19;;;;;;;5.43;2.13;;;24.00;52.80;;;;;;5026237;28;20026;-70
2022/08/08 09:55:46;;;;;;;4.10;1.65;;;24.00;52.80;;;;;;5024482;28;20108;-70
2022/08/08 09:58:17;;;;;;;3.75;1.90;;;23.70;53.50;;;;;;5019756;28;20297;-70
2022/08/08 10:00:45;;;;;;;4.85;2.20;;;23.40;55.00;;;;;;5032430;28;20034;-70
2022/08/08 10:03:14;;;;;;;4.03;2.00;;;22.70;54.40;;;;;;5024443;28;20042;-70
2022/08/08 10:05:40;;;;;;;4.15;2.08;;;22.30;54.60;;;;;;5031770;28;20441;-70
2022/08/08 10:08:06;;;;;;;5.50;2.35;;;22.90;54.80;;;;;;5029664;28;20497;-70
2022/08/08 10:10:35;;;;;;;3.97;2.20;;;23.10;53.10;;;;;;5022263;28;20033;-70
2022/08/08 10:13:21;;;;;;;6.15;2.00;;;22.90;52.60;;;;;;5026491;28;20017;-70
2022/08/08 10:15:53;;;;;;;4.80;2.22;;;22.90;53.40;;;;;;5026384;28;20053;-70
2022/08/08 10:18:24;;;;;;;5.22;2.20;;;23.40;53.30;;;;;;5024641;28;20473;-70
2022/08/08 10:20:54;;;;;;;4.03;1.70;;;23.70;52.00;;;;;;5029469;28;20396;-70
2022/08/08 10:23:33;;;;;;;3.40;1.90;;;24.30;49.90;;;;;;5029982;28;20033;-70
2022/08/08 10:26:02;;;;;;;3.47;1.90;;;25.00;49.60;;;;;;5029875;28;20071;-70
2022/08/08 10:28:30;;;;;;;5.40;2.30;;;25.00;47.40;;;;;;5029042;28;20029;-70
2022/08/08 10:30:58;;;;;;;10.93;2.00;;;24.20;47.20;;;;;;5027335;28;20029;-70
2022/08/08 10:33:32;;;;;;;4.20;1.85;;;23.60;48.90;;;;;;5019969;28;20112;-70
2022/08/08 10:36:01;;;;;;;5.68;2.05;;;23.60;49.70;;;;;;5030339;28;20413;-70
2022/08/08 10:38:33;;;;;;;4.45;2.28;;;23.40;50.20;;;;;;5029588;28;20481;-70
2022/08/08 10:41:03;;;;;;;5.55;1.98;;;23.30;50.90;;;;;;5029304;28;20176;-70
2022/08/08 10:43:40;;;;;;;7.45;2.58;;;23.30;52.10;;;;;;5026953;28;20128;-70
2022/08/08 10:48:52;;;;;;;5.82;2.65;;;23.20;49.80;;;;;;5019807;28;20242;-70
2022/08/08 10:51:18;;;;;;;6.80;2.60;;;23.10;50.30;;;;;;5029852;28;20040;-70
2022/08/08 10:53:47;;;;;;;5.63;2.03;;;24.00;49.30;;;;;;5029934;28;20021;-70
2022/08/08 10:56:13;;;;;;;4.07;2.20;;;24.10;50.60;;;;;;5024894;28;20086;-70
2022/08/08 10:58:39;;;;;;;3.42;1.83;;;24.50;50.20;;;;;;5019042;28;20120;-70
2022/08/08 11:01:08;;;;;;;2.25;1.42;;;25.00;47.60;;;;;;5028225;28;20099;-71
2022/08/08 11:03:41;;;;;;;4.18;1.50;;;25.60;48.60;;;;;;5029725;28;20485;-71
2022/08/08 11:06:07;;;;;;;3.90;1.60;;;25.70;46.50;;;;;;5030545;28;20183;-71
2022/08/08 11:08:35;;;;;;;3.85;2.15;;;24.60;49.00;;;;;;5030468;28;20025;-70
2022/08/08 11:11:05;;;;;;;2.55;1.40;;;24.00;50.70;;;;;;5031772;28;20576;-70
2022/08/08 11:13:41;;;;;;;3.70;1.73;;;23.50;51.10;;;;;;5030691;28;20126;-70
2022/08/08 11:16:11;;;;;;;3.33;1.80;;;23.30;51.10;;;;;;5030352;28;20098;-70
2022/08/08 11:18:37;;;;;;;3.40;1.40;;;23.20;51.30;;;;;;5025103;28;20127;-71
2022/08/08 11:21:05;;;;;;;3.20;1.30;;;23.10;51.70;;;;;;5028775;28;20033;-70
2022/08/08 11:23:34;;;;;;;5.45;1.63;;;23.10;52.20;;;;;;5028182;28;20029;-70
2022/08/08 11:26:04;;;;;;;3.08;1.67;;;23.00;52.50;;;;;;5021450;28;20480;-70
2022/08/08 11:28:34;;;;;;;4.15;1.58;;;23.00;52.10;;;;;;5029011;28;20025;-70
2022/08/08 11:31:02;;;;;;;4.63;1.65;;;22.90;52.70;;;;;;5041794;28;20063;-70
2022/08/08 11:33:30;;;;;;;4.55;1.27;;;23.20;53.00;;;;;;5022138;28;20049;-70
2022/08/08 11:35:56;;;;;;;5.05;1.42;;;23.20;54.30;;;;;;5017694;28;20087;-70
2022/08/08 11:38:24;;;;;;;2.63;1.30;;;23.50;55.40;;;;;;5021318;28;20049;-70
2022/08/08 11:40:51;;;;;;;3.67;1.48;;;23.70;53.50;;;;;;5019840;28;20136;-71
2022/08/08 11:43:18;;;;;;;5.70;1.45;;;23.70;52.90;;;;;;5025676;28;20037;-70
2022/08/08 11:45:48;;;;;;;4.53;1.70;;;24.00;53.60;;;;;;5028584;28;20026;-71
2022/08/08 11:48:14;;;;;;;5.28;1.40;;;24.00;52.90;;;;;;5021442;28;20028;-71
2022/08/08 11:50:40;;;;;;;4.45;1.55;;;24.00;53.90;;;;;;5021948;28;20041;-71
2022/08/08 11:53:08;;;;;;;3.05;1.40;;;24.10;52.80;;;;;;5029366;28;20569;-71
2022/08/08 11:55:36;;;;;;;2.60;1.50;;;24.20;52.20;;;;;;5028127;28;20029;-71
2022/08/08 11:58:08;;;;;;;3.03;1.30;;;24.30;53.90;;;;;;5022798;28;20025;-71
2022/08/08 12:00:33;;;;;;;4.55;1.38;;;24.10;51.40;;;;;;5025123;28;20123;-70
2022/08/08 12:02:59;;;;;;;5.00;1.45;;;24.00;53.10;;;;;;5025308;28;20029;-71
2022/08/08 12:05:37;;;;;;;2.72;1.20;;;24.20;53.60;;;;;;5021743;28;20068;-71
2022/08/08 12:08:03;;;;;;;6.00;1.55;;;24.30;53.20;;;;;;5020770;28;20025;-72
2022/08/08 12:10:30;;;;;;;3.30;1.20;;;24.20;54.80;;;;;;5028700;28;20104;-72
2022/08/08 12:13:08;;;;;;;3.00;1.08;;;24.30;54.60;;;;;;5023968;28;20025;-72
2022/08/08 12:15:37;;;;;;;4.63;1.25;;;24.20;56.20;;;;;;5022144;28;20465;-71
2022/08/08 12:18:20;;;;;;;5.18;1.60;;;24.50;56.30;;;;;;5016191;28;20164;-71
2022/08/08 12:20:46;;;;;;;3.10;1.42;;;24.50;56.60;;;;;;5024894;28;20473;-71
2022/08/08 12:23:12;;;;;;;6.50;1.85;;;24.40;55.70;;;;;;5020540;28;20033;-71
2022/08/08 12:25:37;;;;;;;4.50;1.27;;;24.40;55.70;;;;;;5021065;28;20033;-71
2022/08/08 12:28:11;;;;;;;4.53;1.27;;;24.60;54.90;;;;;;5024122;28;20024;-71
2022/08/08 12:30:37;;;;;;;3.30;1.10;;;24.30;53.50;;;;;;5033935;28;20230;-70
2022/08/08 12:33:03;;;;;;;3.13;1.25;;;23.80;54.10;;;;;;5016178;28;20026;-70
2022/08/08 12:35:38;;;;;;;6.85;1.67;;;23.80;54.20;;;;;;5022016;28;20124;-70
2022/08/08 12:38:06;;;;;;;4.38;1.10;;;23.90;54.00;;;;;;5019989;28;20041;-70
2022/08/08 12:41:11;;;;;;;5.72;1.10;;;24.20;53.70;;;;;;5023538;28;20466;-70
2022/08/08 12:43:36;;;;;;;4.38;1.45;;;24.50;52.10;;;;;;5013059;28;20049;-70
2022/08/08 12:46:15;;;;;;;6.18;1.42;;;24.70;51.40;;;;;;5021848;28;20076;-70
2022/08/08 12:48:55;;;;;;;3.08;1.17;;;24.50;53.00;;;;;;5024557;28;20025;-70
2022/08/08 12:51:21;;;;;;;1.20;0.98;;;24.40;51.20;;;;;;5013776;28;20059;-70
2022/08/08 12:53:58;;;;;;;5.38;1.40;;;24.80;51.40;;;;;;5020797;28;20416;-70
2022/08/08 12:56:36;;;;;;;5.05;1.40;;;24.70;52.00;;;;;;5023181;28;20040;-69
2022/08/08 12:59:14;;;;;;;3.08;1.40;;;25.30;49.50;;;;;;5020939;28;20033;-70
2022/08/08 13:01:39;;;;;;;4.57;1.50;;;24.90;51.20;;;;;;5028350;28;20590;-70
2022/08/08 13:04:21;;;;;;;3.28;1.15;;;25.20;48.50;;;;;;5028029;28;20049;-70
2022/08/08 13:07:01;;;;;;;5.20;1.33;;;26.00;48.30;;;;;;5028887;28;20038;-70
2022/08/08 13:09:35;;;;;;;3.78;1.42;;;25.80;48.00;;;;;;5029833;28;20018;-70
2022/08/08 13:12:09;;;;;;;4.80;1.40;;;26.20;47.90;;;;;;5029645;28;20500;-70
2022/08/08 13:14:46;;;;;;;5.30;1.40;;;26.10;47.20;;;;;;5029104;28;20026;-70
2022/08/08 13:17:13;;;;;;;4.72;1.40;;;26.20;47.90;;;;;;5026363;28;20037;-70
2022/08/08 13:19:39;;;;;;;2.90;1.20;;;26.40;45.80;;;;;;5029040;28;20553;-70
2022/08/08 13:22:06;;;;;;;3.40;1.38;;;26.40;47.10;;;;;;5028095;28;20097;-70